Time;durP1;ratioP1;P1;durP2;ratioP2;P2;SDS_P1;SDS_P2;PMS_P1;PMS_P2;Temp;Humidity;BMP_temperature;BMP_pressure;BME280_temperature;BME280_humidity;BME280_pressure;Samples;Min_cycle;Max_cycle;Signal;HPM_P1;HPM_P2
2023/09/04 00:00:58;;;;;;;0.60;0.60;;;13.60;99.90;;;;;;5098915;27;20043;-85
2023/09/04 00:03:27;;;;;;;1.05;0.82;;;13.50;99.90;;;;;;5095003;27;20050;-85
2023/09/04 00:05:52;;;;;;;0.85;0.73;;;13.50;99.90;;;;;;5101497;27;20466;-85
2023/09/04 00:08:18;;;;;;;1.00;0.90;;;13.40;99.90;;;;;;5081455;27;20070;-84
2023/09/04 00:10:44;;;;;;;1.35;1.10;;;13.40;99.90;;;;;;5094500;27;20037;-85
2023/09/04 00:13:11;;;;;;;1.40;1.23;;;13.40;99.90;;;;;;5119270;27;20123;-85
2023/09/04 00:15:38;;;;;;;1.73;1.50;;;13.40;99.90;;;;;;5108332;27;20517;-85
2023/09/04 00:18:04;;;;;;;1.75;1.50;;;13.40;99.90;;;;;;5102927;27;20053;-85
2023/09/04 00:20:30;;;;;;;2.42;1.52;;;13.40;99.90;;;;;;5094884;27;20050;-84
2023/09/04 00:22:55;;;;;;;1.30;0.70;;;13.40;99.90;;;;;;5091036;27;20550;-84
2023/09/04 00:25:22;;;;;;;0.80;0.70;;;13.40;99.90;;;;;;5095224;27;20034;-85
2023/09/04 00:27:48;;;;;;;1.05;0.70;;;13.40;99.90;;;;;;5094175;27;20118;-85
2023/09/04 00:30:14;;;;;;;1.73;0.90;;;13.40;99.90;;;;;;5096584;27;20074;-84
2023/09/04 00:32:39;;;;;;;1.67;1.45;;;13.40;99.90;;;;;;5109682;27;20492;-84
2023/09/04 00:35:06;;;;;;;4.10;2.33;;;13.40;99.90;;;;;;5087442;27;20038;-85
2023/09/04 00:37:32;;;;;;;2.13;1.92;;;13.40;99.90;;;;;;5098171;27;20031;-85
2023/09/04 00:39:57;;;;;;;2.55;2.35;;;13.50;99.90;;;;;;5091076;27;20046;-85
2023/09/04 00:42:23;;;;;;;4.32;2.42;;;13.50;99.90;;;;;;5083832;27;20393;-85
2023/09/04 00:44:51;;;;;;;6.80;2.10;;;13.50;99.90;;;;;;5083952;27;20039;-85
2023/09/04 00:47:20;;;;;;;6.93;2.25;;;13.60;99.90;;;;;;5100325;27;20047;-85
2023/09/04 00:49:47;;;;;;;7.90;1.95;;;13.60;99.90;;;;;;5094894;27;20045;-86
2023/09/04 00:52:13;;;;;;;16.25;2.22;;;13.60;99.90;;;;;;5112289;27;20039;-86
2023/09/04 00:54:42;;;;;;;24.60;2.40;;;13.70;99.90;;;;;;5115482;27;20121;-86
2023/09/04 00:57:09;;;;;;;47.47;3.33;;;13.60;99.90;;;;;;5098232;27;20431;-86
2023/09/04 00:59:35;;;;;;;;;;;13.60;99.90;;;;;;5116302;27;20050;-85
2023/09/04 01:02:01;;;;;;;10.48;1.90;;;13.60;99.90;;;;;;5117008;27;19921;-85
2023/09/04 01:04:27;;;;;;;19.65;2.53;;;13.60;99.90;;;;;;5098651;27;20082;-85
2023/09/04 01:06:53;;;;;;;23.05;2.88;;;13.60;99.90;;;;;;5096781;27;20120;-85
2023/09/04 01:09:20;;;;;;;19.55;2.75;;;13.60;99.90;;;;;;5090843;27;20095;-85
2023/09/04 01:11:55;;;;;;;;;;;13.60;99.90;;;;;;5100732;27;20117;-84
2023/09/04 01:14:23;;;;;;;30.45;3.85;;;13.60;99.90;;;;;;5116216;27;19934;-85
2023/09/04 01:16:49;;;;;;;41.65;4.25;;;13.70;99.90;;;;;;5106763;27;20046;-85
2023/09/04 01:19:17;;;;;;;3.20;2.40;;;13.70;99.90;;;;;;5099522;27;20655;-85
2023/09/04 01:21:43;;;;;;;5.93;2.75;;;13.70;99.90;;;;;;5100003;27;20082;-86
2023/09/04 01:24:09;;;;;;;18.50;3.30;;;13.70;99.90;;;;;;5094689;27;20494;-85
2023/09/04 01:26:45;;;;;;;34.58;3.58;;;13.70;99.90;;;;;;5131119;27;20043;-86
2023/09/04 01:29:30;;;;;;;57.85;4.45;;;13.70;99.90;;;;;;5118286;27;20042;-85
2023/09/04 01:31:58;;;;;;;28.90;2.90;;;13.60;99.90;;;;;;5117579;27;20031;-85
2023/09/04 01:34:38;;;;;;;37.53;3.15;;;13.60;99.90;;;;;;5117866;27;20037;-85
2023/09/04 01:37:04;;;;;;;30.00;2.60;;;13.50;99.90;;;;;;5116289;27;20042;-86
2023/09/04 01:39:30;;;;;;;8.20;2.00;;;13.50;99.90;;;;;;5094611;27;20047;-86
2023/09/04 01:41:56;;;;;;;15.27;3.40;;;13.40;99.90;;;;;;5084074;27;20121;-85
2023/09/04 01:44:22;;;;;;;5.32;2.20;;;13.40;99.90;;;;;;5098638;27;20095;-86
2023/09/04 01:46:48;;;;;;;2.88;2.30;;;13.40;99.90;;;;;;5095771;27;20587;-84
2023/09/04 01:49:14;;;;;;;8.68;3.03;;;13.40;99.90;;;;;;5105246;27;20057;-85
2023/09/04 01:51:40;;;;;;;2.95;2.50;;;13.40;99.90;;;;;;5114693;27;20143;-87
2023/09/04 01:54:05;;;;;;;12.50;3.03;;;13.30;99.90;;;;;;5088063;27;20385;-86
2023/09/04 01:56:32;;;;;;;16.92;3.75;;;13.30;99.90;;;;;;5097271;27;20047;-87
2023/09/04 01:58:57;;;;;;;7.30;3.45;;;13.30;99.90;;;;;;5080055;27;20043;-86
2023/09/04 02:01:23;;;;;;;18.42;3.35;;;13.30;99.90;;;;;;5095897;27;20046;-86
2023/09/04 02:03:56;;;;;;;47.35;3.90;;;13.30;99.90;;;;;;5077978;27;20110;-86
2023/09/04 02:06:27;;;;;;;6.47;1.98;;;;;;;;;;5089606;27;20038;-86
2023/09/04 02:08:53;;;;;;;3.17;2.30;;;;;;;;;;5112022;27;20063;-85
2023/09/04 02:11:19;;;;;;;19.02;3.00;;;;;;;;;;5089392;27;20674;-87
2023/09/04 02:13:45;;;;;;;6.50;2.42;;;;;;;;;;5101767;27;20068;-86
2023/09/04 02:16:12;;;;;;;8.70;2.40;;;;;;;;;;5095245;27;20054;-86
2023/09/04 02:18:38;;;;;;;4.75;2.30;;;;;;;;;;5106736;27;20041;-86
2023/09/04 02:21:05;;;;;;;7.80;2.10;;;;;;;;;;5099374;27;20043;-86
2023/09/04 02:23:31;;;;;;;2.40;2.00;;;;;;;;;;5100406;27;20047;-86
2023/09/04 02:25:57;;;;;;;2.97;2.45;;;;;;;;;;5114005;27;20043;-86
2023/09/04 02:28:24;;;;;;;25.27;3.22;;;;;;;;;;5110381;27;20051;-85
2023/09/04 02:30:50;;;;;;;21.27;3.08;;;;;;;;;;5102665;27;20038;-85
2023/09/04 02:33:16;;;;;;;18.67;3.15;;;;;;;;;;5106941;27;20062;-86
2023/09/04 02:35:42;;;;;;;20.67;2.70;;;;;;;;;;5099694;27;20121;-85
2023/09/04 02:38:09;;;;;;;47.53;3.38;;;;;;;;;;5107932;27;20039;-85
2023/09/04 02:40:35;;;;;;;12.65;2.30;;;;;;;;;;5094733;27;20493;-84
2023/09/04 02:43:02;;;;;;;30.27;2.35;;;;;;;;;;5091975;27;20078;-85
2023/09/04 02:45:28;;;;;;;5.32;1.52;;;;;;;;;;5114686;27;20083;-85
2023/09/04 02:47:54;;;;;;;8.07;1.63;;;;;;;;;;5097267;27;20034;-84
2023/09/04 02:50:20;;;;;;;1.65;1.50;;;;;;;;;;5103589;27;20035;-84
2023/09/04 02:52:46;;;;;;;1.95;1.40;;;;;;;;;;5121629;27;20127;-85
2023/09/04 02:55:13;;;;;;;1.85;1.30;;;;;;;;;;5122584;27;20042;-85
2023/09/04 02:57:39;;;;;;;3.45;1.15;;;;;;;;;;5095496;27;20591;-85
2023/09/04 03:00:08;;;;;;;7.20;1.50;;;;;;;;;;5095406;27;20482;-84
2023/09/04 03:02:35;;;;;;;2.95;2.15;;;;;;;;;;5099979;27;20041;-84
2023/09/04 03:05:01;;;;;;;8.93;1.60;;;;;;;;;;5117463;27;20122;-84
2023/09/04 03:07:27;;;;;;;4.40;1.50;;;;;;;;;;5114705;28;20039;-85
2023/09/04 03:09:55;;;;;;;5.25;1.58;;;;;;;;;;5131725;27;20067;-83
2023/09/04 03:12:22;;;;;;;1.90;1.70;;;;;;;;;;5108027;27;20084;-84
2023/09/04 03:14:52;;;;;;;2.00;1.77;;;;;;;;;;5116550;27;20078;-83
2023/09/04 03:17:19;;;;;;;2.20;1.88;;;;;;;;;;5107492;27;20516;-84
2023/09/04 03:19:45;;;;;;;2.50;2.20;;;;;;;;;;5105743;27;20049;-83
2023/09/04 03:22:11;;;;;;;2.90;2.28;;;;;;;;;;5108141;27;20042;-84
2023/09/04 03:24:37;;;;;;;2.20;1.95;;;;;;;;;;5101316;27;20537;-85
2023/09/04 03:27:03;;;;;;;2.03;1.70;;;;;;;;;;5132429;27;20046;-86
2023/09/04 03:29:29;;;;;;;1.75;1.50;;;;;;;;;;5097087;27;20607;-82
2023/09/04 03:31:55;;;;;;;1.77;1.63;;;;;;;;;;5094566;27;20042;-84
2023/09/04 03:34:21;;;;;;;2.00;1.60;;;;;;;;;;5111207;27;20147;-83
2023/09/04 03:36:47;;;;;;;3.60;2.03;;;12.60;99.90;;;;;;5118588;28;20051;-85
2023/09/04 03:39:13;;;;;;;2.10;1.90;;;12.50;99.90;;;;;;5097552;27;20833;-83
2023/09/04 03:41:39;;;;;;;2.10;1.90;;;12.50;99.90;;;;;;5077595;27;20046;-83
2023/09/04 03:44:06;;;;;;;2.55;2.10;;;12.50;99.90;;;;;;5105114;27;20520;-82
2023/09/04 03:46:32;;;;;;;3.83;2.10;;;12.50;99.90;;;;;;5085321;27;20043;-82
2023/09/04 03:48:57;;;;;;;3.58;2.30;;;12.40;99.90;;;;;;5136613;27;20792;-82
2023/09/04 03:51:23;;;;;;;2.80;2.40;;;12.40;99.90;;;;;;5096922;27;20046;-81
2023/09/04 03:53:49;;;;;;;3.63;2.45;;;12.40;99.90;;;;;;5109390;27;20035;-82
2023/09/04 03:56:14;;;;;;;3.35;2.08;;;12.50;99.90;;;;;;5085122;27;20176;-82
2023/09/04 03:58:40;;;;;;;3.75;3.10;;;12.40;99.90;;;;;;5098986;27;20035;-82
2023/09/04 04:01:06;;;;;;;2.50;2.08;;;12.40;99.90;;;;;;5095972;27;20046;-83
2023/09/04 04:03:31;;;;;;;2.40;2.00;;;12.40;99.90;;;;;;5115761;27;20047;-82
2023/09/04 04:05:57;;;;;;;2.47;1.85;;;12.40;99.90;;;;;;5099959;27;20039;-84
2023/09/04 04:08:23;;;;;;;2.55;2.33;;;12.40;99.90;;;;;;5095251;27;20540;-83
2023/09/04 04:10:48;;;;;;;3.83;2.10;;;12.40;99.90;;;;;;5102979;27;20039;-87
2023/09/04 04:13:14;;;;;;;2.88;2.55;;;12.40;99.90;;;;;;5083012;27;20122;-84
2023/09/04 04:15:41;;;;;;;3.47;2.78;;;12.40;99.90;;;;;;5080005;27;20061;-83
2023/09/04 04:18:10;;;;;;;4.63;3.70;;;12.40;99.90;;;;;;5115989;27;20034;-84
2023/09/04 04:20:36;;;;;;;3.70;3.30;;;12.50;99.90;;;;;;5086242;27;20035;-83
2023/09/04 04:23:03;;;;;;;17.38;3.65;;;12.50;99.90;;;;;;5085621;27;20035;-83
2023/09/04 04:25:29;;;;;;;3.45;2.92;;;12.50;99.90;;;;;;5130820;27;20043;-82
2023/09/04 04:27:54;;;;;;;3.55;3.15;;;12.50;99.90;;;;;;5098254;27;20046;-83
2023/09/04 04:30:20;;;;;;;6.57;2.88;;;12.50;99.90;;;;;;5117541;27;20059;-82
2023/09/04 04:32:48;;;;;;;6.82;3.50;;;12.50;99.90;;;;;;5101245;27;20430;-82
2023/09/04 04:35:14;;;;;;;3.45;3.15;;;12.50;99.90;;;;;;5116932;27;20070;-82
2023/09/04 04:37:39;;;;;;;3.63;3.30;;;12.50;99.90;;;;;;5082511;27;20081;-82
2023/09/04 04:40:06;;;;;;;3.85;3.13;;;12.50;99.90;;;;;;5079993;27;20091;-83
2023/09/04 04:42:32;;;;;;;4.40;3.20;;;12.50;99.90;;;;;;5094676;27;20043;-83
2023/09/04 04:44:57;;;;;;;3.20;2.88;;;12.50;99.90;;;;;;5099014;27;20171;-84
2023/09/04 04:47:23;;;;;;;4.78;4.15;;;12.40;99.90;;;;;;5095505;27;20031;-82
2023/09/04 04:49:49;;;;;;;7.50;3.88;;;12.50;99.90;;;;;;5080560;27;20091;-83
2023/09/04 04:52:14;;;;;;;4.25;3.85;;;12.40;99.90;;;;;;5084407;27;20039;-83
2023/09/04 04:54:40;;;;;;;11.05;3.63;;;12.30;99.90;;;;;;5079201;27;20092;-82
2023/09/04 04:57:06;;;;;;;6.28;4.00;;;12.30;99.90;;;;;;5080310;27;20635;-83
2023/09/04 04:59:31;;;;;;;4.35;3.92;;;12.30;99.90;;;;;;5087157;27;20043;-82
2023/09/04 05:02:00;;;;;;;4.63;3.80;;;12.30;99.90;;;;;;5082185;27;20494;-83
2023/09/04 05:04:25;;;;;;;4.05;3.15;;;12.40;99.90;;;;;;5077294;27;20415;-84
2023/09/04 05:06:51;;;;;;;3.35;2.50;;;12.70;99.90;;;;;;5076337;27;20042;-81
2023/09/04 05:09:17;;;;;;;22.67;3.00;;;12.40;99.90;;;;;;5112934;27;20031;-80
2023/09/04 05:11:43;;;;;;;21.83;2.72;;;12.30;99.90;;;;;;5084460;27;20038;-80
2023/09/04 05:14:08;;;;;;;43.38;3.47;;;12.40;99.90;;;;;;5080858;27;20724;-80
2023/09/04 05:16:34;;;;;;;9.23;1.63;;;12.40;99.90;;;;;;5087965;27;20125;-80
2023/09/04 05:18:59;;;;;;;3.15;1.38;;;12.40;99.90;;;;;;5084977;27;20042;-80
2023/09/04 05:21:25;;;;;;;1.73;1.40;;;12.40;99.90;;;;;;5113119;27;20043;-81
2023/09/04 05:23:52;;;;;;;5.13;2.28;;;12.60;99.90;;;;;;5116673;27;20081;-80
2023/09/04 05:26:18;;;;;;;2.92;2.40;;;12.50;99.90;;;;;;5134423;27;20038;-81
2023/09/04 05:28:44;;;;;;;2.67;2.38;;;12.50;99.90;;;;;;5097071;27;20065;-81
2023/09/04 05:31:09;;;;;;;3.45;2.63;;;12.60;99.90;;;;;;5100905;27;20577;-80
2023/09/04 05:33:35;;;;;;;3.15;2.50;;;12.60;99.90;;;;;;5099984;27;20038;-82
2023/09/04 05:36:01;;;;;;;3.55;2.70;;;12.70;99.90;;;;;;5076721;27;20050;-81
2023/09/04 05:38:27;;;;;;;4.57;3.13;;;12.70;99.90;;;;;;5084432;27;20034;-83
2023/09/04 05:40:54;;;;;;;3.40;2.72;;;13.10;99.90;;;;;;5116117;27;20435;-80
2023/09/04 05:43:20;;;;;;;4.18;3.25;;;12.90;99.90;;;;;;5113763;27;20107;-82
2023/09/04 05:45:46;;;;;;;7.80;3.92;;;;;;;;;;5131286;27;20046;-81
2023/09/04 05:48:12;;;;;;;4.85;4.10;;;12.80;99.90;;;;;;5113412;27;20129;-82
2023/09/04 05:50:38;;;;;;;6.13;4.95;;;;;;;;;;5087841;27;20121;-83
2023/09/04 05:53:04;;;;;;;6.35;5.32;;;;;;;;;;5105372;27;20397;-83
2023/09/04 05:55:30;;;;;;;6.30;5.70;;;13.40;99.90;;;;;;5101912;27;20042;-85
2023/09/04 05:57:55;;;;;;;7.80;5.90;;;13.50;99.90;;;;;;5078799;27;20050;-86
2023/09/04 06:00:21;;;;;;;7.20;6.43;;;13.60;99.90;;;;;;5086603;27;20741;-85
2023/09/04 06:02:47;;;;;;;7.38;6.25;;;13.70;99.90;;;;;;5117689;27;20076;-84
2023/09/04 06:05:13;;;;;;;8.63;6.78;;;13.90;99.90;;;;;;5101565;27;20084;-87
2023/09/04 06:07:39;;;;;;;8.48;6.93;;;14.00;99.90;;;;;;5086592;27;20053;-89
2023/09/04 06:10:05;;;;;;;7.85;7.05;;;14.10;99.90;;;;;;5091077;27;20508;-90
2023/09/04 06:12:31;;;;;;;9.40;6.70;;;14.30;99.90;;;;;;5102609;27;20041;-90
2023/09/04 06:14:57;;;;;;;9.50;6.45;;;14.40;99.90;;;;;;5100474;27;20055;-90
2023/09/04 06:17:23;;;;;;;8.95;6.07;;;14.50;99.90;;;;;;5101085;27;20039;-87
2023/09/04 06:19:48;;;;;;;10.02;6.05;;;14.70;99.90;;;;;;5104283;27;20050;-88
2023/09/04 06:22:14;;;;;;;8.13;5.97;;;14.90;99.90;;;;;;5098225;27;20086;-87
2023/09/04 06:24:40;;;;;;;9.55;6.10;;;15.20;99.90;;;;;;5090667;27;20070;-86
2023/09/04 06:27:06;;;;;;;9.05;5.80;;;15.80;99.90;;;;;;5098030;27;20066;-86
2023/09/04 06:29:34;;;;;;;7.72;6.13;;;16.40;99.90;;;;;;5083658;27;20110;-85
2023/09/04 06:32:01;;;;;;;6.93;6.00;;;;;;;;;;5135837;27;20045;-83
2023/09/04 06:34:28;;;;;;;10.20;5.38;;;17.10;99.90;;;;;;5125934;27;20637;-85
2023/09/04 06:36:54;;;;;;;8.35;6.18;;;;;;;;;;5110306;28;20039;-84
2023/09/04 06:39:20;;;;;;;9.48;6.30;;;17.10;99.90;;;;;;5094823;27;20034;-82
2023/09/04 06:41:46;;;;;;;11.27;7.05;;;16.90;99.90;;;;;;5094583;27;20077;-82
2023/09/04 06:44:11;;;;;;;12.57;8.35;;;16.90;99.90;;;;;;5090816;27;20073;-79
2023/09/04 06:46:37;;;;;;;9.50;7.60;;;16.80;99.90;;;;;;5125603;27;20038;-81
2023/09/04 06:49:03;;;;;;;8.88;7.45;;;16.80;99.90;;;;;;5085102;27;20046;-81
2023/09/04 06:51:29;;;;;;;16.05;7.82;;;16.80;99.90;;;;;;5096031;27;20035;-82
2023/09/04 06:53:55;;;;;;;12.50;8.07;;;16.90;99.90;;;;;;5110698;27;20031;-80
2023/09/04 06:56:20;;;;;;;14.13;8.30;;;17.10;99.90;;;;;;5091911;28;20122;-80
2023/09/04 06:58:46;;;;;;;9.68;8.00;;;17.20;99.90;;;;;;5079276;27;20031;-80
2023/09/04 07:01:12;;;;;;;9.80;8.27;;;;;;;;;;5094793;28;20035;-80
2023/09/04 07:03:38;;;;;;;9.30;8.00;;;17.30;99.90;;;;;;5094803;27;20058;-80
2023/09/04 07:06:04;;;;;;;9.10;8.07;;;17.50;99.90;;;;;;5099214;27;20042;-80
2023/09/04 07:08:32;;;;;;;11.60;7.97;;;18.00;99.90;;;;;;5100898;27;20042;-80
2023/09/04 07:10:58;;;;;;;13.70;8.45;;;18.40;99.90;;;;;;5087478;28;20041;-81
2023/09/04 07:13:24;;;;;;;9.52;8.10;;;18.80;99.90;;;;;;5114319;27;20043;-81
2023/09/04 07:15:50;;;;;;;10.65;7.18;;;19.80;99.90;;;;;;5114773;27;20073;-80
2023/09/04 07:18:16;;;;;;;7.80;7.00;;;;;;;;;;5084134;27;20765;-81
2023/09/04 07:20:42;;;;;;;11.70;7.07;;;22.30;99.90;;;;;;5132724;27;20043;-78
2023/09/04 07:23:08;;;;;;;7.68;5.85;;;22.80;99.90;;;;;;5120702;27;20124;-79
2023/09/04 07:25:34;;;;;;;6.30;5.55;;;24.00;99.90;;;;;;5098315;27;20092;-78
2023/09/04 07:28:00;;;;;;;6.43;5.00;;;24.10;99.90;;;;;;5126596;27;20035;-79
2023/09/04 07:30:26;;;;;;;7.38;5.05;;;24.20;99.90;;;;;;5096979;27;20475;-81
2023/09/04 07:32:51;;;;;;;6.50;5.50;;;23.50;99.90;;;;;;5094432;27;20035;-80
2023/09/04 07:35:17;;;;;;;6.72;4.82;;;23.00;99.90;;;;;;5111686;27;20402;-82
2023/09/04 07:37:43;;;;;;;7.77;4.30;;;23.10;99.90;;;;;;5086742;27;20039;-85
2023/09/04 07:40:09;;;;;;;6.57;4.20;;;23.30;99.90;;;;;;5102742;27;20558;-79
2023/09/04 07:42:35;;;;;;;3.60;3.30;;;23.50;99.90;;;;;;5107109;27;20031;-80
2023/09/04 07:45:01;;;;;;;3.95;2.92;;;24.30;99.90;;;;;;5088888;27;20465;-82
2023/09/04 07:47:26;;;;;;;3.50;2.80;;;25.20;99.90;;;;;;5085151;27;20508;-82
2023/09/04 07:49:53;;;;;;;4.57;2.93;;;25.70;99.90;;;;;;5080582;27;20061;-84
2023/09/04 07:52:20;;;;;;;3.20;2.90;;;26.30;99.90;;;;;;5086101;27;20456;-83
2023/09/04 07:54:48;;;;;;;3.70;3.20;;;26.80;99.90;;;;;;5094852;27;20031;-85
2023/09/04 07:57:14;;;;;;;3.47;2.83;;;27.00;99.90;;;;;;5093627;27;20045;-84
2023/09/04 07:59:40;;;;;;;3.00;2.70;;;27.20;99.90;;;;;;5114351;27;20073;-87
2023/09/04 08:02:06;;;;;;;3.10;2.80;;;27.40;99.90;;;;;;5079275;27;20071;-86
2023/09/04 08:04:31;;;;;;;3.00;2.70;;;27.50;99.90;;;;;;5081831;27;20815;-83
2023/09/04 08:06:57;;;;;;;3.30;3.00;;;27.50;99.90;;;;;;5084968;27;20038;-88
2023/09/04 08:09:23;;;;;;;3.27;2.73;;;27.60;99.90;;;;;;5115812;27;20031;-84
2023/09/04 08:11:51;;;;;;;3.58;2.70;;;27.60;99.90;;;;;;5080339;27;20042;-84
2023/09/04 08:14:17;;;;;;;4.65;2.78;;;27.80;99.90;;;;;;5110685;27;20058;-83
2023/09/04 08:16:43;;;;;;;3.60;2.30;;;27.30;99.90;;;;;;5107309;27;20081;-84
2023/09/04 08:19:08;;;;;;;3.05;2.70;;;27.70;99.90;;;;;;5071194;27;20127;-88
2023/09/04 08:21:34;;;;;;;5.43;3.10;;;27.90;99.90;;;;;;5087474;28;20109;-89
2023/09/04 08:24:00;;;;;;;2.90;2.53;;;27.90;99.90;;;;;;5056280;28;20417;-86
2023/09/04 08:26:26;;;;;;;5.47;2.60;;;27.60;99.90;;;;;;5071003;28;20092;-84
2023/09/04 08:28:51;;;;;;;4.73;2.90;;;27.50;99.90;;;;;;5057324;27;20043;-84
2023/09/04 08:31:17;;;;;;;4.43;2.50;;;27.50;99.50;;;;;;5077223;28;20126;-85
2023/09/04 08:33:46;;;;;;;5.40;2.40;;;27.40;99.70;;;;;;5073805;28;20495;-85
2023/09/04 08:36:13;;;;;;;5.68;2.63;;;27.70;99.90;;;;;;5075908;28;20135;-82
2023/09/04 08:38:38;;;;;;;3.47;2.33;;;27.90;99.60;;;;;;5056020;27;20048;-85
2023/09/04 08:41:07;;;;;;;2.73;2.10;;;27.70;98.60;;;;;;5079437;28;20100;-85
2023/09/04 08:43:35;;;;;;;3.78;2.58;;;27.40;98.40;;;;;;5094887;27;20048;-86
2023/09/04 08:46:02;;;;;;;3.22;2.50;;;27.00;98.30;;;;;;5070833;28;20044;-84
2023/09/04 08:48:34;;;;;;;3.25;2.13;;;26.40;98.40;;;;;;5105739;28;20112;-84
2023/09/04 08:50:59;;;;;;;5.28;2.38;;;26.30;99.80;;;;;;5087944;28;20069;-83
2023/09/04 08:53:26;;;;;;;5.53;2.07;;;25.60;99.60;;;;;;5076890;27;20118;-81
2023/09/04 08:55:55;;;;;;;3.83;1.70;;;25.40;99.90;;;;;;5075928;28;20122;-82
2023/09/04 08:58:21;;;;;;;2.83;1.65;;;24.80;99.90;;;;;;5095282;27;20046;-82
2023/09/04 09:00:48;;;;;;;2.35;1.50;;;24.50;99.90;;;;;;5092673;28;20040;-80
2023/09/04 09:03:14;;;;;;;2.45;1.70;;;24.30;99.90;;;;;;5092714;27;20042;-82
2023/09/04 09:05:42;;;;;;;1.52;1.35;;;24.00;99.90;;;;;;5066950;28;20036;-82
2023/09/04 09:08:08;;;;;;;1.92;1.50;;;23.90;99.90;;;;;;5091129;28;20167;-84
2023/09/04 09:10:35;;;;;;;1.95;1.38;;;23.80;99.90;;;;;;5072434;28;20043;-80
2023/09/04 09:13:01;;;;;;;4.63;1.50;;;23.80;99.90;;;;;;5057956;28;20040;-82
2023/09/04 09:15:30;;;;;;;1.53;1.30;;;23.80;99.90;;;;;;5093823;27;20066;-81
2023/09/04 09:17:57;;;;;;;1.70;1.27;;;23.70;99.90;;;;;;5104012;27;20430;-82
2023/09/04 09:20:31;;;;;;;;;;;23.80;99.90;;;;;;5107272;27;20035;-82
2023/09/04 09:22:58;;;;;;;1.92;1.30;;;23.60;99.90;;;;;;5107518;27;19965;-83
2023/09/04 09:25:24;;;;;;;1.83;1.40;;;23.40;99.90;;;;;;5097110;27;20075;-85
2023/09/04 09:27:50;;;;;;;1.98;1.10;;;23.60;99.90;;;;;;5115258;27;20047;-85
2023/09/04 09:30:16;;;;;;;1.92;1.38;;;23.60;99.90;;;;;;5091832;28;20596;-84
2023/09/04 09:32:43;;;;;;;3.63;0.80;;;23.60;99.90;;;;;;5100579;28;20035;-84
2023/09/04 09:35:09;;;;;;;4.85;1.38;;;23.70;99.90;;;;;;5108594;27;20039;-85
2023/09/04 09:37:36;;;;;;;1.30;0.80;;;23.80;99.90;;;;;;5100000;27;20398;-83
2023/09/04 09:40:05;;;;;;;5.40;1.20;;;23.70;99.90;;;;;;5075202;27;20070;-81
2023/09/04 09:42:31;;;;;;;1.73;1.02;;;23.70;99.90;;;;;;5108313;27;20084;-83
2023/09/04 09:44:57;;;;;;;1.37;1.13;;;23.70;99.90;;;;;;5077220;27;20047;-82
2023/09/04 09:47:23;;;;;;;1.83;1.20;;;23.80;99.90;;;;;;5112829;27;20054;-84
2023/09/04 09:49:49;;;;;;;3.40;1.20;;;23.70;99.90;;;;;;5090226;27;20146;-81
2023/09/04 09:52:16;;;;;;;1.85;1.30;;;23.60;99.90;;;;;;5106273;28;20039;-85
2023/09/04 09:54:43;;;;;;;6.03;1.35;;;23.60;99.90;;;;;;5108452;28;20047;-83
2023/09/04 09:57:13;;;;;;;3.25;1.60;;;23.60;99.90;;;;;;5090154;28;20047;-80
2023/09/04 09:59:48;;;;;;;4.10;1.60;;;23.70;99.90;;;;;;5112079;27;20043;-86
2023/09/04 10:02:27;;;;;;;1.75;1.42;;;23.70;99.90;;;;;;5085557;27;20046;-83
2023/09/04 10:04:54;;;;;;;2.40;1.40;;;23.90;99.90;;;;;;5112705;27;20043;-83
2023/09/04 10:07:32;;;;;;;1.73;1.50;;;24.00;99.90;;;;;;5093093;27;20031;-83
2023/09/04 10:10:03;;;;;;;;;;;24.20;99.90;;;;;;5125896;27;20047;-80
2023/09/04 10:12:52;;;;;;;3.60;1.90;;;24.30;99.90;;;;;;5113171;27;20014;-84
2023/09/04 10:15:26;;;;;;;2.78;1.70;;;24.40;99.90;;;;;;5099749;27;20052;-82
2023/09/04 10:18:05;;;;;;;4.40;1.60;;;24.10;99.90;;;;;;5103589;28;20118;-83
2023/09/04 10:20:31;;;;;;;2.88;1.60;;;24.10;99.90;;;;;;5120092;27;20040;-79
2023/09/04 10:23:09;;;;;;;2.75;1.65;;;24.30;99.90;;;;;;5080444;28;20500;-81
2023/09/04 10:25:51;;;;;;;2.42;1.75;;;24.40;99.90;;;;;;5107967;28;20498;-84
2023/09/04 10:28:52;;;;;;;2.72;1.98;;;24.40;99.90;;;;;;5124792;27;20035;-86
2023/09/04 10:31:20;;;;;;;2.67;1.50;;;24.40;99.90;;;;;;5075275;27;20124;-79
2023/09/04 10:33:46;;;;;;;2.25;1.52;;;24.40;99.90;;;;;;5092732;27;20043;-80
2023/09/04 10:36:12;;;;;;;1.77;1.45;;;24.40;99.90;;;;;;5080751;27;20051;-82
2023/09/04 10:38:39;;;;;;;4.00;1.50;;;24.40;99.90;;;;;;5074832;28;20035;-83
2023/09/04 10:41:08;;;;;;;2.17;1.25;;;24.60;99.90;;;;;;5072816;27;20062;-83
2023/09/04 10:43:44;;;;;;;2.08;1.40;;;24.70;99.90;;;;;;5084571;28;20387;-84
2023/09/04 10:46:12;;;;;;;1.77;1.27;;;24.70;99.90;;;;;;5078461;27;20046;-79
2023/09/04 10:48:49;;;;;;;3.15;1.25;;;24.80;99.90;;;;;;5091256;27;20035;-83
2023/09/04 10:51:34;;;;;;;1.58;1.20;;;24.90;99.90;;;;;;5105272;28;20043;-83
2023/09/04 10:54:22;;;;;;;2.03;1.20;;;25.10;99.90;;;;;;5102071;27;20047;-78
2023/09/04 10:57:00;;;;;;;2.35;1.20;;;25.10;99.90;;;;;;5128418;27;20070;-82
2023/09/04 10:59:26;;;;;;;;;;;25.10;99.90;;;;;;5105422;27;20039;-84
2023/09/04 11:01:52;;;;;;;3.20;1.30;;;25.10;99.90;;;;;;5122762;27;19919;-82
2023/09/04 11:04:36;;;;;;;1.63;1.00;;;25.00;99.90;;;;;;5106685;28;20039;-83
2023/09/04 11:07:21;;;;;;;1.58;1.15;;;24.80;99.90;;;;;;5106509;28;20091;-89
2023/09/04 11:09:58;;;;;;;1.90;0.80;;;24.90;99.90;;;;;;5110514;28;20027;-85
2023/09/04 11:12:26;;;;;;;1.48;1.08;;;24.90;99.90;;;;;;5111392;28;20393;-85
2023/09/04 11:14:54;;;;;;;1.85;1.00;;;25.10;99.90;;;;;;5127345;27;20037;-84
2023/09/04 11:17:28;;;;;;;2.65;1.17;;;25.30;99.90;;;;;;5107952;27;20082;-85
2023/09/04 11:19:54;;;;;;;1.73;0.85;;;25.30;99.90;;;;;;5111721;27;20130;-89
2023/09/04 11:22:21;;;;;;;1.55;0.98;;;25.40;99.90;;;;;;5093968;27;20130;-81
2023/09/04 11:24:47;;;;;;;1.35;1.00;;;25.30;99.90;;;;;;5103771;28;20047;-82
2023/09/04 11:27:13;;;;;;;5.82;1.13;;;25.40;99.90;;;;;;5132042;27;20039;-88
2023/09/04 11:29:38;;;;;;;6.10;1.10;;;25.30;99.90;;;;;;5087264;27;20150;-85
2023/09/04 11:32:07;;;;;;;2.40;0.70;;;25.30;99.90;;;;;;5096217;27;20047;-83
2023/09/04 11:34:33;;;;;;;3.67;0.80;;;25.40;99.90;;;;;;5128125;27;20067;-85
2023/09/04 11:36:59;;;;;;;2.47;1.03;;;25.50;99.90;;;;;;5096299;27;20134;-84
2023/09/04 11:39:24;;;;;;;1.30;0.97;;;25.60;99.90;;;;;;5099120;27;20547;-83
2023/09/04 11:41:51;;;;;;;1.60;0.90;;;25.60;99.90;;;;;;5119832;27;20482;-82
2023/09/04 11:44:16;;;;;;;1.88;0.90;;;25.60;99.90;;;;;;5098053;27;20207;-80
2023/09/04 11:46:45;;;;;;;1.03;0.70;;;25.60;99.90;;;;;;5103542;27;20109;-82
2023/09/04 11:49:11;;;;;;;1.67;1.00;;;25.60;99.90;;;;;;5117123;27;20062;-86
2023/09/04 11:51:37;;;;;;;1.37;0.83;;;25.50;99.80;;;;;;5110796;27;20069;-84
2023/09/04 11:54:04;;;;;;;1.65;1.00;;;25.50;99.90;;;;;;5112708;27;20043;-85
2023/09/04 11:56:30;;;;;;;8.45;1.30;;;25.30;99.70;;;;;;5116437;27;20133;-82
2023/09/04 11:58:57;;;;;;;2.57;0.87;;;25.30;99.90;;;;;;5097452;27;20122;-83
2023/09/04 12:01:26;;;;;;;;;;;25.30;99.90;;;;;;5108351;27;20085;-84
2023/09/04 12:03:53;;;;;;;3.58;0.90;;;25.30;99.90;;;;;;5114330;27;19919;-83
2023/09/04 12:06:19;;;;;;;1.67;0.95;;;25.20;99.90;;;;;;5083354;27;20085;-81
2023/09/04 12:08:45;;;;;;;1.42;0.95;;;25.10;99.90;;;;;;5085799;27;20436;-85
2023/09/04 12:11:11;;;;;;;2.53;0.80;;;25.00;99.90;;;;;;5136807;27;20414;-82
2023/09/04 12:13:37;;;;;;;1.17;0.90;;;25.00;99.90;;;;;;5117948;27;20353;-79
2023/09/04 12:16:07;;;;;;;14.00;1.10;;;25.00;99.90;;;;;;5071270;27;20063;-77
2023/09/04 12:18:37;;;;;;;1.98;0.80;;;25.00;99.50;;;;;;5090218;28;20591;-82
2023/09/04 12:21:10;;;;;;;2.50;0.82;;;24.90;99.90;;;;;;5091638;28;20043;-82
2023/09/04 12:23:44;;;;;;;1.95;1.00;;;24.70;98.90;;;;;;5090291;28;20566;-80
2023/09/04 12:26:12;;;;;;;0.95;0.80;;;24.60;99.60;;;;;;5090312;28;20032;-85
2023/09/04 12:28:38;;;;;;;1.38;0.60;;;24.50;99.90;;;;;;5083528;28;20379;-84
2023/09/04 12:31:12;;;;;;;1.63;0.80;;;24.50;99.90;;;;;;5091593;28;20044;-85
2023/09/04 12:33:42;;;;;;;0.90;0.70;;;24.50;99.70;;;;;;5090857;28;20386;-83
2023/09/04 12:36:10;;;;;;;1.55;0.80;;;24.60;99.90;;;;;;5103474;28;20126;-86
2023/09/04 12:38:37;;;;;;;2.88;0.88;;;24.60;99.90;;;;;;5083607;28;20114;-84
2023/09/04 12:41:06;;;;;;;1.50;0.98;;;24.70;99.90;;;;;;5105399;28;20040;-88
2023/09/04 12:43:33;;;;;;;2.28;0.90;;;24.60;99.90;;;;;;5083958;28;20044;-86
2023/09/04 12:45:58;;;;;;;1.42;0.70;;;24.60;99.90;;;;;;5078282;28;20040;-87
2023/09/04 12:48:24;;;;;;;0.73;0.57;;;24.50;99.90;;;;;;5057741;28;20042;-84
2023/09/04 12:50:50;;;;;;;2.40;1.03;;;24.40;99.90;;;;;;5088092;28;20050;-83
2023/09/04 12:53:16;;;;;;;2.13;0.70;;;24.40;99.90;;;;;;5075675;28;20061;-85
2023/09/04 12:55:42;;;;;;;2.80;0.83;;;24.40;99.90;;;;;;5085958;28;20028;-85
2023/09/04 12:58:10;;;;;;;1.13;0.60;;;24.50;99.90;;;;;;5088284;28;20042;-85
2023/09/04 13:00:37;;;;;;;1.10;0.63;;;24.50;99.50;;;;;;5066650;28;20071;-84